Time;durP1;ratioP1;P1;durP2;ratioP2;P2;SDS_P1;SDS_P2;PMS_P1;PMS_P2;Temp;Humidity;BMP_temperature;BMP_pressure;BME280_temperature;BME280_humidity;BME280_pressure;Samples;Min_cycle;Max_cycle;Signal;HPM_P1;HPM_P2
2021/03/20 00:01:32;;;;;;;153.27;78.78;;;;;;;;;;5000981;28;20317;-83
2021/03/20 00:03:58;;;;;;;146.30;74.90;;;;;;;;;;5000820;28;20061;-83
2021/03/20 00:06:27;;;;;;;151.93;74.88;;;;;;;;;;5000892;28;20049;-83
2021/03/20 00:08:53;;;;;;;145.80;77.28;;;;;;;;;;5000947;28;20034;-84
2021/03/20 00:11:20;;;;;;;147.30;71.65;;;;;;;;;;5000839;28;20023;-83
2021/03/20 00:13:47;;;;;;;139.45;70.68;;;;;;;;;;5000786;28;20030;-83
2021/03/20 00:16:13;;;;;;;134.02;69.82;;;;;;;;;;5000544;28;20072;-83
2021/03/20 00:18:39;;;;;;;140.45;69.20;;;;;;;;;;5000579;28;20026;-83
2021/03/20 00:21:07;;;;;;;155.23;74.22;;;;;;;;;;5000650;28;20022;-83
2021/03/20 00:23:33;;;;;;;159.65;73.07;;;;;;;;;;5000376;28;20056;-83
2021/03/20 00:25:59;;;;;;;157.93;73.00;;;;;;;;;;4983379;28;20033;-83
2021/03/20 00:28:27;;;;;;;162.63;72.70;;;;;;;;;;5000465;28;20023;-83
2021/03/20 00:30:55;;;;;;;164.48;75.65;;;;;;;;;;5000554;28;20030;-83
2021/03/20 00:33:21;;;;;;;167.07;74.70;;;;;;;;;;5000224;28;20031;-84
2021/03/20 00:35:48;;;;;;;186.30;85.88;;;;;;;;;;5000389;28;20034;-84
2021/03/20 00:38:14;;;;;;;178.68;82.45;;;;;;;;;;4983187;28;20029;-84
2021/03/20 00:40:41;;;;;;;222.15;96.43;;;;;;;;;;4982992;28;20022;-83
2021/03/20 00:43:07;;;;;;;182.20;87.32;;;;;;;;;;4982917;28;20041;-83
2021/03/20 00:45:34;;;;;;;214.48;96.45;;;;;;;;;;4982350;28;20092;-83
2021/03/20 00:48:08;;;;;;;216.88;100.22;;;;;;;;;;4999881;28;20027;-82
2021/03/20 00:50:35;;;;;;;197.15;95.57;;;;;;;;;;5000023;28;20031;-82
2021/03/20 00:53:01;;;;;;;181.35;86.60;;;;;;;;;;5000065;28;20061;-83
2021/03/20 00:55:27;;;;;;;165.60;84.07;;;;;;;;;;4982199;28;20042;-83
2021/03/20 00:57:53;;;;;;;182.23;97.75;;;;;;;;;;4982378;28;20076;-83
2021/03/20 01:00:20;;;;;;;194.63;108.47;;;;;;;;;;4999899;28;20025;-84
2021/03/20 01:02:46;;;;;;;189.80;104.30;;;;;;;;;;4999777;28;20098;-84
2021/03/20 01:05:14;;;;;;;185.55;99.22;;;;;;;;;;4999760;28;20491;-84
2021/03/20 01:07:40;;;;;;;203.38;109.63;;;;;;;;;;4982540;28;20073;-83
2021/03/20 01:10:08;;;;;;;198.15;110.32;;;;;;;;;;4982354;28;20356;-84
2021/03/20 01:12:34;;;;;;;201.15;110.72;;;;;;;;;;4999663;28;20037;-84
2021/03/20 01:15:00;;;;;;;195.38;102.85;;;;;;;;;;4999136;28;20034;-84
2021/03/20 01:17:26;;;;;;;178.45;98.05;;;;;;;;;;4982001;28;20038;-84
2021/03/20 01:19:52;;;;;;;172.13;90.45;;;;;;;;;;4999580;28;20026;-84
2021/03/20 01:22:18;;;;;;;163.23;86.65;;;;;;;;;;4999419;28;20043;-84
2021/03/20 01:24:44;;;;;;;159.43;82.45;;;;;;;;;;4999418;28;20022;-83
2021/03/20 01:27:10;;;;;;;154.73;81.07;;;;;;;;;;4999260;28;20031;-83
2021/03/20 01:29:36;;;;;;;202.73;100.20;;;;;;;;;;4999245;28;20023;-83
2021/03/20 01:32:02;;;;;;;216.77;109.35;;;;;;;;;;4982102;28;20061;-83
2021/03/20 01:34:28;;;;;;;228.57;110.13;;;;;;;;;;4982124;28;20025;-83
2021/03/20 01:36:55;;;;;;;224.50;107.40;;;;;;;;;;5000786;28;20732;-84
2021/03/20 01:39:21;;;;;;;225.98;108.93;;;;;;;;;;5018546;28;20463;-84
2021/03/20 01:41:47;;;;;;;212.95;105.00;;;;;;;;;;5019209;28;20068;-84
2021/03/20 01:44:15;;;;;;;195.65;99.18;;;;;;;;;;5034129;28;20026;-84
2021/03/20 01:46:46;;;;;;;219.40;102.75;;;;;;;;;;5033460;28;20030;-84
2021/03/20 01:49:18;;;;;;;211.88;102.60;;;;;;;;;;5019177;28;20026;-84
2021/03/20 01:51:49;;;;;;;201.85;100.10;;;;;;;;;;5033595;28;20482;-84
2021/03/20 01:54:16;;;;;;;203.30;97.78;;;;;;;;;;5034443;28;20074;-84
2021/03/20 01:56:44;;;;;;;193.07;95.97;;;;;;;;;;5018922;28;20423;-84
2021/03/20 01:59:12;;;;;;;198.82;96.55;;;;;;;;;;5018625;28;20623;-86
2021/03/20 02:01:40;;;;;;;201.10;96.82;;;;;;;;;;5033775;28;20045;-85
2021/03/20 02:04:06;;;;;;;213.88;101.65;;;;;;;;;;5018891;28;20025;-86
2021/03/20 02:06:33;;;;;;;246.55;117.35;;;;;;;;;;5017407;28;20032;-85
2021/03/20 02:09:01;;;;;;;224.18;108.78;;;;;;;;;;4999542;28;20035;-85
2021/03/20 02:11:41;;;;;;;236.48;113.13;;;;;;;;;;4998609;28;20026;-85
2021/03/20 02:14:07;;;;;;;238.93;112.30;;;;;;;;;;4982064;28;20034;-85
2021/03/20 02:16:47;;;;;;;251.15;120.07;;;;;;;;;;4981899;28;20034;-84
2021/03/20 02:19:13;;;;;;;285.00;125.57;;;;;;;;;;4982043;28;20022;-84
2021/03/20 02:21:48;;;;;;;282.52;127.35;;;;;;;;;;4998862;28;20118;-85
2021/03/20 02:24:14;;;;;;;287.67;130.90;;;;;;;;;;4998778;28;20045;-84
2021/03/20 02:26:59;;;;;;;285.63;133.13;;;;;;;;;;4999597;28;20038;-85
2021/03/20 02:29:52;;;;;;;299.88;137.15;;;;;;;;;;4999430;28;20026;-84
2021/03/20 02:32:24;;;;;;;319.60;141.30;;;;;;;;;;4920483;29;20040;-85
2021/03/20 02:34:50;;;;;;;307.95;143.70;;;;;;;;;;4904292;29;20047;-85
2021/03/20 02:37:28;;;;;;;274.40;124.95;;;;;;;;;;4926712;29;20085;-84
2021/03/20 02:40:03;;;;;;;253.05;117.22;;;;;;;;;;4923545;29;20023;-85
2021/03/20 02:42:33;;;;;;;278.10;125.72;;;;;;;;;;4923638;29;20516;-85
2021/03/20 02:45:02;;;;;;;271.40;126.50;;;;;;;;;;4923293;29;20042;-85
2021/03/20 02:47:30;;;;;;;272.52;126.68;;;;;;;;;;4939328;29;20079;-85
2021/03/20 02:50:07;;;;;;;276.20;127.60;;;;;;;;;;4922566;29;20040;-85
2021/03/20 02:52:56;;;;;;;270.02;123.85;;;;;;;;;;4938406;29;20043;-85
2021/03/20 02:55:28;;;;;;;254.88;120.57;;;;;;;;;;4915185;29;20059;-85
2021/03/20 02:58:06;;;;;;;235.23;109.43;;;;;;;;;;4922411;29;20481;-85
2021/03/20 03:00:39;;;;;;;234.35;111.88;;;;;;;;;;4938619;29;20048;-85
2021/03/20 03:03:06;;;;;;;218.45;103.30;;;;;;;;;;4938544;29;20059;-85
2021/03/20 03:05:52;;;;;;;225.60;103.60;;;;;;;;;;4922743;29;20023;-85
2021/03/20 03:08:22;;;;;;;189.35;91.85;;;;;;;;;;4938102;28;20313;-86
2021/03/20 03:10:49;;;;;;;181.48;92.80;;;;;;;;;;5017767;28;20061;-86
2021/03/20 03:13:26;;;;;;;179.70;88.68;;;;;;;;;;5017878;28;20022;-85
2021/03/20 03:15:55;;;;;;;174.15;82.95;;;;;;;;;;5017453;28;20049;-85
2021/03/20 03:18:27;;;;;;;161.15;82.00;;;;;;;;;;5017229;28;20025;-85
2021/03/20 03:20:55;;;;;;;128.00;67.93;;;;;;;;;;5001196;28;20064;-85
2021/03/20 03:23:23;;;;;;;120.70;61.13;;;;;;;;;;5003970;28;20073;-85
2021/03/20 03:25:52;;;;;;;108.28;60.95;;;;;;;;;;5003858;28;20033;-85
2021/03/20 03:28:24;;;;;;;110.57;61.80;;;;;;;;;;5003656;28;20034;-85
2021/03/20 03:30:50;;;;;;;107.97;57.90;;;;;;;;;;5021414;28;20046;-85
2021/03/20 03:33:25;;;;;;;118.30;61.53;;;;;;;;;;5021379;28;20420;-87
2021/03/20 03:35:54;;;;;;;106.88;56.63;;;;;;;;;;5021017;28;20076;-86
2021/03/20 03:38:28;;;;;;;105.30;57.53;;;;;;;;;;5004005;28;20026;-85
2021/03/20 03:41:08;;;;;;;104.93;57.00;;;;;;;;;;5021288;28;20037;-86
2021/03/20 03:43:35;;;;;;;92.82;52.42;;;;;;;;;;5021277;28;20409;-85
2021/03/20 03:46:01;;;;;;;100.63;55.60;;;;;;;;;;5020944;28;20026;-85
2021/03/20 03:48:27;;;;;;;92.97;53.45;;;;;;;;;;5020969;28;20121;-86
2021/03/20 03:50:55;;;;;;;96.30;54.15;;;;;;;;;;5021212;28;20121;-86
2021/03/20 03:53:24;;;;;;;96.00;52.10;;;;;;;;;;5021019;28;20026;-86
2021/03/20 03:55:54;;;;;;;87.82;50.92;;;;;;;;;;5003506;28;20113;-86
2021/03/20 03:58:24;;;;;;;88.45;50.70;;;;;;;;;;5020984;28;20022;-85
2021/03/20 04:01:10;;;;;;;93.30;53.22;;;;;;;;;;5020808;28;20096;-86
2021/03/20 04:03:54;;;;;;;93.43;53.03;;;;;;;;;;5020824;28;20026;-85
2021/03/20 04:06:20;;;;;;;93.13;53.08;;;;;;;;;;5020811;28;20078;-86
2021/03/20 04:08:49;;;;;;;134.52;73.85;;;;;;;;;;5020961;28;20034;-87
2021/03/20 04:11:21;;;;;;;135.10;76.70;;;;;;;;;;5020517;28;20029;-86
2021/03/20 04:13:47;;;;;;;103.28;57.67;;;;;;;;;;5020863;28;20125;-86
2021/03/20 04:16:20;;;;;;;319.63;105.60;;;;;;;;;;5020526;28;20112;-86
2021/03/20 04:18:55;;;;;;;248.77;89.60;;;;;;;;;;5020508;28;20293;-86
2021/03/20 04:21:31;;;;;;;225.10;85.07;;;;;;;;;;5002684;28;20038;-86
2021/03/20 04:24:06;;;;;;;170.70;72.93;;;;;;;;;;5020278;28;20040;-87
2021/03/20 04:26:43;;;;;;;256.02;93.60;;;;;;;;;;5002872;28;20022;-86
2021/03/20 04:29:21;;;;;;;200.15;82.15;;;;;;;;;;5020482;28;20428;-86
2021/03/20 04:31:55;;;;;;;163.10;69.78;;;;;;;;;;5020318;28;20056;-86
2021/03/20 04:34:21;;;;;;;201.15;89.32;;;;;;;;;;5002215;28;20098;-85
2021/03/20 04:36:50;;;;;;;142.27;68.85;;;;;;;;;;5019877;28;20053;-85
2021/03/20 04:39:17;;;;;;;135.55;64.95;;;;;;;;;;5020327;28;20085;-85
2021/03/20 04:41:43;;;;;;;105.30;55.97;;;;;;;;;;5002636;28;20018;-85
2021/03/20 04:44:10;;;;;;;103.47;55.45;;;;;;;;;;5020176;28;20104;-85
2021/03/20 04:46:38;;;;;;;107.82;56.28;;;;;;;;;;5002359;28;20029;-85
2021/03/20 04:49:07;;;;;;;136.45;67.30;;;;;;;;;;5002559;28;20037;-85
2021/03/20 04:51:39;;;;;;;133.32;66.22;;;;;;;;;;5002762;28;20045;-85
2021/03/20 04:54:13;;;;;;;145.17;72.07;;;;;;;;;;5002417;28;20310;-85
2021/03/20 04:56:52;;;;;;;172.18;79.15;;;;;;;;;;5019899;28;20026;-85
2021/03/20 04:59:24;;;;;;;157.38;78.45;;;;;;;;;;5019711;28;20025;-84
2021/03/20 05:01:52;;;;;;;215.77;105.20;;;;;;;;;;5019590;28;20133;-84
2021/03/20 05:04:30;;;;;;;174.55;93.07;;;;;;;;;;5002193;28;20034;-82
2021/03/20 05:06:58;;;;;;;138.98;75.20;;;;;;;;;;5019373;28;20026;-86
2021/03/20 05:09:26;;;;;;;113.13;61.78;;;;;;;;;;5019317;28;20037;-85
2021/03/20 05:11:58;;;;;;;107.00;56.95;;;;;;;;;;5019374;28;20160;-85
2021/03/20 05:14:28;;;;;;;99.40;57.42;;;;;;;;;;5019600;28;20048;-85
2021/03/20 05:16:58;;;;;;;97.22;54.38;;;;;;;;;;5019292;28;20023;-85
2021/03/20 05:19:25;;;;;;;94.13;53.58;;;;;;;;;;5001648;28;20026;-85
2021/03/20 05:21:54;;;;;;;105.07;58.35;;;;;;;;;;5018890;28;20055;-85
2021/03/20 05:24:22;;;;;;;106.25;58.10;;;;;;;;;;5019254;28;20420;-85
2021/03/20 05:26:49;;;;;;;101.43;56.95;;;;;;;;;;5018973;28;20427;-85
2021/03/20 05:29:15;;;;;;;106.10;58.45;;;;;;;;;;5001715;28;20380;-86
2021/03/20 05:31:41;;;;;;;118.35;57.63;;;;;;;;;;5019186;28;20052;-85
2021/03/20 05:34:40;;;;;;;104.47;55.40;;;;;;;;;;5001291;28;20065;-85
2021/03/20 05:37:08;;;;;;;102.57;57.78;;;;;;;;;;4923937;29;20039;-85
2021/03/20 05:39:35;;;;;;;108.20;60.28;;;;;;;;;;4939688;28;20036;-85
2021/03/20 05:42:07;;;;;;;126.43;67.35;;;;;;;;;;4939707;29;20020;-84
2021/03/20 05:44:48;;;;;;;110.53;60.25;;;;;;;;;;4938749;29;20027;-85
2021/03/20 05:47:32;;;;;;;111.80;61.65;;;;;;;;;;4939718;29;20441;-86
2021/03/20 05:50:04;;;;;;;152.10;79.22;;;;;;;;;;4923703;29;20062;-85
2021/03/20 05:52:35;;;;;;;202.55;107.10;;;;;;;;;;4923395;29;20036;-85
2021/03/20 05:55:09;;;;;;;189.60;108.80;;;;;;;;;;4923470;29;20024;-84
2021/03/20 05:57:55;;;;;;;194.15;106.43;;;;;;;;;;4923655;29;20124;-84
2021/03/20 06:00:24;;;;;;;207.43;111.65;;;;;;;;;;4882728;29;20064;-84
2021/03/20 06:03:02;;;;;;;208.68;114.35;;;;;;;;;;4882806;29;20033;-84
2021/03/20 06:05:35;;;;;;;210.32;106.78;;;;;;;;;;4882748;29;20048;-84
2021/03/20 06:08:12;;;;;;;199.30;106.53;;;;;;;;;;4882664;29;20047;-84
2021/03/20 06:10:41;;;;;;;197.32;107.07;;;;;;;;;;4882368;29;20467;-84
2021/03/20 06:13:10;;;;;;;179.68;100.57;;;;;;;;;;4921695;29;20445;-85
2021/03/20 06:15:54;;;;;;;175.00;98.68;;;;;;;;;;4939180;29;20079;-85
2021/03/20 06:18:45;;;;;;;176.20;95.90;;;;;;;;;;4938769;29;20036;-84
2021/03/20 06:21:19;;;;;;;171.75;92.85;;;;;;;;;;4923159;29;20034;-85
2021/03/20 06:23:58;;;;;;;152.38;84.47;;;;;;;;;;4938886;29;20063;-84
2021/03/20 06:26:26;;;;;;;144.48;76.38;;;;;;;;;;4939123;29;20525;-86
2021/03/20 06:29:00;;;;;;;135.82;76.47;;;;;;;;;;4922994;29;20046;-86
2021/03/20 06:31:44;;;;;;;131.43;75.00;;;;;;;;;;4938819;29;20040;-84
2021/03/20 06:34:13;;;;;;;128.57;73.82;;;;;;;;;;4938758;29;20031;-83
2021/03/20 06:36:42;;;;;;;118.28;65.97;;;;;;;;;;4953421;28;20038;-84
2021/03/20 06:39:30;;;;;;;108.43;62.10;;;;;;;;;;5018092;28;20375;-85
2021/03/20 06:42:00;;;;;;;104.15;61.75;;;;;;;;;;5000571;28;20029;-83
2021/03/20 06:44:31;;;;;;;109.63;63.13;;;;;;;;;;5000214;28;20380;-83
2021/03/20 06:46:58;;;;;;;111.43;61.05;;;;;;;;;;5000253;28;20025;-83
2021/03/20 06:49:29;;;;;;;108.35;59.80;;;;;;;;;;5017724;28;20026;-84
2021/03/20 06:51:57;;;;;;;110.72;60.80;;;;;;;;;;5000410;28;20412;-83
2021/03/20 06:54:23;;;;;;;106.72;60.67;;;;;;;;;;5017609;28;20117;-84
2021/03/20 06:56:50;;;;;;;103.22;59.53;;;;;;;;;;5016893;28;20022;-83
2021/03/20 06:59:17;;;;;;;102.75;59.20;;;;;;;;;;5017425;28;20037;-83
2021/03/20 07:01:49;;;;;;;106.60;62.15;;;;;;;;;;5017253;28;20022;-83
2021/03/20 07:04:35;;;;;;;94.25;55.53;;;;;;;;;;5017655;28;20321;-83
2021/03/20 07:07:04;;;;;;;91.78;52.60;;;;;;;;;;5017432;28;20462;-83
2021/03/20 07:09:31;;;;;;;84.25;50.20;;;;;;;;;;4999964;28;20076;-83
2021/03/20 07:12:09;;;;;;;89.53;51.95;;;;;;;;;;5017288;28;20022;-83
2021/03/20 07:14:41;;;;;;;79.25;46.58;;;;;;;;;;5017230;28;20317;-83
2021/03/20 07:17:09;;;;;;;79.95;50.75;;;;;;;;;;5017205;28;20069;-84
2021/03/20 07:19:35;;;;;;;85.10;48.55;;;;;;;;;;5017050;28;20152;-83
2021/03/20 07:22:01;;;;;;;77.45;44.70;;;;;;;;;;5017224;28;20048;-83
2021/03/20 07:24:56;;;;;;;91.65;51.10;;;;;;;;;;5017303;28;20042;-83
2021/03/20 07:27:29;;;;;;;113.20;59.03;;;;;;;;;;4938034;29;20062;-82
2021/03/20 07:30:00;;;;;;;89.50;51.47;;;;;;;;;;4922074;29;20032;-82
2021/03/20 07:32:26;;;;;;;140.50;67.75;;;;;;;;;;4937923;29;20099;-83
2021/03/20 07:34:55;;;;;;;133.10;69.47;;;;;;;;;;4938007;29;20031;-83
2021/03/20 07:37:21;;;;;;;142.15;73.95;;;;;;;;;;4921963;29;20061;-83
2021/03/20 07:39:47;;;;;;;94.63;52.97;;;;;;;;;;4938008;29;20048;-83
2021/03/20 07:42:25;;;;;;;96.60;55.33;;;;;;;;;;4937837;29;20071;-83
2021/03/20 07:44:54;;;;;;;87.20;51.17;;;;;;;;;;4937865;29;20036;-82
2021/03/20 07:47:21;;;;;;;85.80;47.42;;;;;;;;;;4937743;29;20023;-83
2021/03/20 07:49:48;;;;;;;76.13;46.30;;;;;;;;;;4937543;29;20052;-83
2021/03/20 07:52:25;;;;;;;76.22;46.58;;;;;;;;;;4937904;29;20032;-83
2021/03/20 07:55:03;;;;;;;80.47;46.72;;;;;;;;;;4921696;29;20091;-83
2021/03/20 07:57:29;;;;;;;73.72;41.20;;;;;;;;;;4921826;29;20099;-82
2021/03/20 07:59:56;;;;;;;70.22;39.72;;;;;;;;;;4921933;29;20326;-82
2021/03/20 08:02:32;;;;;;;63.60;37.10;;;;;;;;;;4937881;29;20020;-83
2021/03/20 08:05:00;;;;;;;52.03;32.55;;;;;;;;;;5016962;28;20308;-83
2021/03/20 08:07:36;;;;;;;59.22;34.40;;;;;;;;;;4999582;28;20021;-82
2021/03/20 08:10:26;;;;;;;54.20;35.17;;;;;;;;;;5020407;28;20018;-82
2021/03/20 08:12:57;;;;;;;48.58;30.92;;;;;;;;;;4993356;28;20034;-82
2021/03/20 08:15:27;;;;;;;49.78;32.03;;;;;;;;;;5019951;28;20032;-82
2021/03/20 08:18:27;;;;;;;48.08;30.52;;;;;;;;;;5002717;28;20129;-82
2021/03/20 08:21:04;;;;;;;38.85;26.02;;;;;;;;;;5002526;28;20073;-82
2021/03/20 08:23:33;;;;;;;46.50;26.63;;;;;;;;;;5002059;28;20038;-82
2021/03/20 08:26:03;;;;;;;44.25;27.65;;;;;;;;;;5019847;28;20030;-82
2021/03/20 08:28:50;;;;;;;37.85;24.98;;;;;;;;;;5002086;28;20037;-81
2021/03/20 08:31:23;;;;;;;36.70;23.17;;;;;;;;;;5019827;28;20030;-81
2021/03/20 08:34:10;;;;;;;38.78;24.15;;;;;;;;;;5019698;28;20026;-82
2021/03/20 08:36:55;;;;;;;38.03;23.40;;;;;;;;;;5002399;28;20033;-82
2021/03/20 08:39:25;;;;;;;29.00;19.00;;;;;;;;;;5019782;28;20032;-82
2021/03/20 08:42:03;;;;;;;27.30;18.38;;;;;;;;;;5019823;28;20024;-82
2021/03/20 08:44:34;;;;;;;28.25;19.35;;;;;;;;;;5019607;28;20050;-83
2021/03/20 08:47:05;;;;;;;27.25;19.38;;;;;;;;;;5002103;28;20030;-82
2021/03/20 08:49:40;;;;;;;28.30;18.08;;;;;;;;;;5019176;28;20056;-82
2021/03/20 08:52:12;;;;;;;32.55;20.73;;;;;;;;;;5019107;28;20026;-82
2021/03/20 08:54:48;;;;;;;26.65;18.20;;;;;;;;;;5019520;28;20029;-82
2021/03/20 08:57:27;;;;;;;27.67;19.15;;;;;;;;;;5019426;28;20088;-81
2021/03/20 08:59:55;;;;;;;34.00;20.80;;;;;;;;;;5019336;28;20026;-81
2021/03/20 09:02:24;;;;;;;32.72;20.50;;;;;;;;;;5001982;28;20030;-82
2021/03/20 09:05:15;;;;;;;31.92;21.15;;;;;;;;;;5001954;28;20022;-82
2021/03/20 09:07:54;;;;;;;32.00;20.70;;;;;;;;;;5019320;28;20033;-82
2021/03/20 09:10:29;;;;;;;30.38;19.75;;;;;;;;;;5019175;28;20060;-82
2021/03/20 09:13:00;;;;;;;29.52;20.15;;;;;;;;;;5001810;28;20050;-82
2021/03/20 09:15:28;;;;;;;28.50;19.23;;;;;;;;;;5018954;28;20030;-82
2021/03/20 09:17:55;;;;;;;43.75;23.63;;;;;;;;;;5001406;28;20022;-82
2021/03/20 09:20:24;;;;;;;50.33;25.70;;;;;;;;;;5000805;28;20099;-82
2021/03/20 09:22:51;;;;;;;60.28;27.55;;;;;;;;;;4998151;28;20057;-82
2021/03/20 09:25:20;;;;;;;45.38;23.15;;;;;;;;;;4999310;28;20066;-82
2021/03/20 09:27:58;;;;;;;33.38;20.75;;;;;;;;;;4999244;28;20362;-82
2021/03/20 09:30:31;;;;;;;33.10;21.10;;;;;;;;;;4998173;28;20034;-82
2021/03/20 09:32:58;;;;;;;35.40;21.70;;;;;;;;;;4998969;28;20058;-82
2021/03/20 09:35:25;;;;;;;30.42;19.63;;;;;;;;;;4999140;28;20038;-82
2021/03/20 09:37:52;;;;;;;27.58;17.67;;;;;;;;;;4999081;28;20105;-82
2021/03/20 09:40:37;;;;;;;22.48;15.60;;;;;;;;;;4999121;28;20042;-82
2021/03/20 09:43:22;;;;;;;23.20;15.98;;;;;;;;;;4997909;28;20023;-82
2021/03/20 09:46:08;;;;;;;20.08;14.60;;;;;;;;;;4998883;28;20038;-81
2021/03/20 09:48:44;;;;;;;20.60;14.63;;;;;;;;;;4998950;28;20026;-82
2021/03/20 09:51:28;;;;;;;22.90;15.25;;;;;;;;;;4998882;28;20034;-82
2021/03/20 09:53:54;;;;;;;22.15;16.42;;;;;;;;;;4998710;28;20042;-82
2021/03/20 09:56:28;;;;;;;26.00;16.80;;;;;;;;;;4998816;28;20066;-82
2021/03/20 09:58:54;;;;;;;25.15;16.85;;;;;;;;;;4997742;28;20029;-82
2021/03/20 10:01:21;;;;;;;21.90;15.00;;;;;;;;;;4998627;28;20345;-83
2021/03/20 10:04:13;;;;;;;23.80;15.45;;;;;;;;;;4997651;28;20077;-82
2021/03/20 10:06:41;;;;;;;22.48;15.35;;;;;;;;;;4998409;28;20026;-81
2021/03/20 10:09:07;;;;;;;20.15;14.65;;;;;;;;;;4998720;28;20357;-82
2021/03/20 10:11:34;;;;;;;22.35;14.60;;;;;;;;;;4998690;28;20093;-82
2021/03/20 10:14:01;;;;;;;20.67;14.00;;;;;;;;;;4998433;28;20029;-82
2021/03/20 10:16:29;;;;;;;19.52;14.65;;;;;;;;;;4998276;28;20026;-82
2021/03/20 10:18:57;;;;;;;23.63;15.68;;;;;;;;;;4997174;28;20034;-82
2021/03/20 10:21:26;;;;;;;21.27;15.20;;;;;;;;;;4999541;28;20030;-82
2021/03/20 10:23:58;;;;;;;22.10;15.73;;;;;;;;;;5017698;28;20029;-82
2021/03/20 10:26:28;;;;;;;24.50;15.02;;;;;;;;;;5017846;28;20036;-82
2021/03/20 10:28:57;;;;;;;21.60;14.40;;;;;;;;;;5017910;28;20028;-81
2021/03/20 10:31:24;;;;;;;20.65;14.57;;;;;;;;;;4999692;28;20029;-82
2021/03/20 10:34:00;;;;;;;19.13;13.85;;;;;;;;;;5000103;28;20451;-81
2021/03/20 10:36:28;;;;;;;21.98;14.75;;;;;;;;;;5017470;28;20034;-82
2021/03/20 10:38:54;;;;;;;23.00;14.57;;;;;;;;;;5017826;28;20076;-82
2021/03/20 10:41:22;;;;;;;20.48;14.82;;;;;;;;;;5017728;28;20105;-82
2021/03/20 10:43:54;;;;;;;19.70;13.82;;;;;;;;;;5017572;28;20026;-81
2021/03/20 10:46:22;;;;;;;17.10;12.93;;;;;;;;;;5017541;28;20022;-81
2021/03/20 10:48:50;;;;;;;17.25;13.98;;;;;;;;;;4999743;28;20034;-81
2021/03/20 10:51:17;;;;;;;30.42;19.17;;;;;;;;;;5017739;28;20416;-86
2021/03/20 10:53:45;;;;;;;24.55;17.05;;;;;;;;;;5017862;28;20061;-86
2021/03/20 10:56:26;;;;;;;23.80;16.55;;;;;;;;;;5017805;28;20494;-86
2021/03/20 10:58:52;;;;;;;21.95;15.73;;;;;;;;;;5017789;28;20447;-86
2021/03/20 11:01:29;;;;;;;25.75;16.88;;;;;;;;;;5000471;28;20054;-83
2021/03/20 11:03:55;;;;;;;34.92;20.90;;;;;;;;;;5017514;28;20022;-84
2021/03/20 11:06:22;;;;;;;23.35;15.93;;;;;;;;;;5000201;28;20029;-85
2021/03/20 11:08:50;;;;;;;22.73;15.95;;;;;;;;;;5017478;28;20026;-85
2021/03/20 11:11:21;;;;;;;48.15;23.85;;;;;;;;;;5017396;28;20106;-82
2021/03/20 11:13:48;;;;;;;18.67;13.55;;;;;;;;;;4999749;28;20034;-83
2021/03/20 11:16:17;;;;;;;17.23;13.52;;;;;;;;;;5017358;28;20030;-83
2021/03/20 11:18:46;;;;;;;21.23;14.52;;;;;;;;;;5017273;28;20113;-83
2021/03/20 11:21:17;;;;;;;20.27;14.70;;;;;;;;;;5016666;28;20026;-82
2021/03/20 11:23:43;;;;;;;33.47;18.60;;;;;;;;;;5016465;28;20133;-81
2021/03/20 11:26:25;;;;;;;71.25;45.85;;;;;;;;;;5016745;28;20029;-82
2021/03/20 11:28:52;;;;;;;57.90;45.00;;;;;;;;;;5016716;28;20128;-81
2021/03/20 11:31:19;;;;;;;32.65;25.33;;;;;;;;;;5016806;28;20507;-81
2021/03/20 11:33:45;;;;;;;35.40;30.88;;;;;;;;;;4999484;28;20030;-81
2021/03/20 11:36:18;;;;;;;22.08;17.70;;;;;;;;;;5016960;28;20036;-81
2021/03/20 11:38:44;;;;;;;;;;;;;;;;;;5017302;28;20104;-81
2021/03/20 11:41:10;;;;;;;39.15;35.08;;;;;;;;;;5017131;28;19937;-81
2021/03/20 11:43:42;;;;;;;53.78;48.30;;;;;;;;;;5020642;28;20029;-81
2021/03/20 11:46:08;;;;;;;34.83;29.10;;;;;;;;;;5020699;28;20073;-83
2021/03/20 11:48:39;;;;;;;27.85;19.70;;;;;;;;;;5020535;28;20483;-80
2021/03/20 11:51:07;;;;;;;36.33;28.10;;;;;;;;;;5020603;28;20021;-79
2021/03/20 11:53:42;;;;;;;43.35;37.60;;;;;;;;;;5003215;28;20038;-79
2021/03/20 11:56:16;;;;;;;37.55;31.50;;;;;;;;;;5020475;28;20030;-80
2021/03/20 11:58:48;;;;;;;24.33;18.40;;;;;;;;;;5020485;28;20022;-79
2021/03/20 12:01:38;;;;;;;24.48;17.35;;;;;;;;;;5020335;28;20026;-79
2021/03/20 12:04:10;;;;;;;21.88;14.70;;;;;;;;;;5010243;28;20053;-79
2021/03/20 12:06:37;;;;;;;129.40;112.93;;;;;;;;;;5020389;28;20046;-79
2021/03/20 12:09:04;;;;;;;30.40;21.58;;;;;;;;;;5002873;28;20324;-80
2021/03/20 12:11:45;;;;;;;51.65;43.80;;;;;;;;;;5020064;28;20157;-79
2021/03/20 12:14:28;;;;;;;27.70;18.92;;;;;;;;;;5020020;28;20030;-79
2021/03/20 12:17:05;;;;;;;25.58;18.73;;;;;;;;;;5019985;28;20059;-79
2021/03/20 12:19:31;;;;;;;29.20;18.92;;;;;;;;;;5020215;28;20026;-79
2021/03/20 12:22:04;;;;;;;22.13;14.25;;;;;;;;;;5002197;28;20380;-79
2021/03/20 12:24:30;;;;;;;;;;;;;;;;;;5020218;28;20050;-79
2021/03/20 12:26:56;;;;;;;23.63;13.70;;;;;;;;;;5019875;28;19905;-79
2021/03/20 12:29:33;;;;;;;15.68;11.18;;;;;;;;;;5019536;28;20022;-79
2021/03/20 12:32:18;;;;;;;19.23;12.45;;;;;;;;;;5002125;28;20125;-79
2021/03/20 12:34:44;;;;;;;14.95;11.15;;;;;;;;;;5019630;28;20022;-79
2021/03/20 12:37:21;;;;;;;18.50;10.98;;;;;;;;;;5019919;28;20033;-79
2021/03/20 12:39:49;;;;;;;17.08;10.82;;;;;;;;;;5019559;28;20431;-80
2021/03/20 12:42:15;;;;;;;20.08;12.52;;;;;;;;;;5019545;28;20026;-76
2021/03/20 12:44:44;;;;;;;19.27;12.85;;;;;;;;;;5001838;28;20030;-77
2021/03/20 12:47:12;;;;;;;15.50;11.18;;;;;;;;;;5019550;28;20488;-77
2021/03/20 12:49:40;;;;;;;18.30;11.80;;;;;;;;;;5019418;28;20113;-77
2021/03/20 12:52:22;;;;;;;16.63;11.70;;;;;;;;;;5019662;28;20030;-76
2021/03/20 12:54:50;;;;;;;;;;;;;;;;;;5002503;28;20417;-77
2021/03/20 12:57:27;;;;;;;17.35;11.48;;;;;;;;;;4999817;28;19910;-76
2021/03/20 12:59:53;;;;;;;19.85;12.82;;;;;;;;;;4999732;28;20029;-76
2021/03/20 13:02:19;;;;;;;21.38;13.45;;;;;;;;;;4999556;28;20525;-76
2021/03/20 13:04:46;;;;;;;19.08;13.13;;;;;;;;;;4982138;28;20038;-76
2021/03/20 13:07:12;;;;;;;22.15;14.43;;;;;;;;;;4999126;28;20026;-76
2021/03/20 13:09:38;;;;;;;26.33;15.98;;;;;;;;;;4999460;28;20033;-76
2021/03/20 13:12:05;;;;;;;17.88;12.50;;;;;;;;;;4999376;28;20022;-76
2021/03/20 13:14:33;;;;;;;20.42;13.48;;;;;;;;;;4999314;28;20151;-76
2021/03/20 13:16:59;;;;;;;19.52;13.65;;;;;;;;;;4999440;28;20106;-77
2021/03/20 13:19:25;;;;;;;17.90;12.73;;;;;;;;;;4998696;28;20361;-77
2021/03/20 13:21:51;;;;;;;17.17;12.18;;;;;;;;;;4999189;28;20358;-77
2021/03/20 13:24:18;;;;;;;17.48;11.75;;;;;;;;;;4999110;28;20353;-77
2021/03/20 13:26:44;;;;;;;18.08;11.35;;;;;;;;;;4999106;28;20057;-77
2021/03/20 13:29:10;;;;;;;28.70;13.93;;;;;;;;;;4999079;28;20401;-76
2021/03/20 13:31:37;;;;;;;26.45;14.65;;;;;;;;;;4999163;28;20352;-77
2021/03/20 13:34:03;;;;;;;17.95;12.60;;;;;;;;;;4998951;28;20027;-76
2021/03/20 13:36:29;;;;;;;21.30;14.50;;;;;;;;;;4999150;28;20439;-77
2021/03/20 13:38:55;;;;;;;22.73;13.93;;;;;;;;;;4998845;28;20026;-77
2021/03/20 13:41:22;;;;;;;20.67;13.60;;;;;;;;;;4998832;28;20026;-76
2021/03/20 13:43:48;;;;;;;18.23;12.20;;;;;;;;;;4998916;28;20027;-77
2021/03/20 13:46:14;;;;;;;16.50;12.43;;;;;;;;;;4998851;28;20034;-77
2021/03/20 13:48:41;;;;;;;14.43;10.40;;;;;;;;;;4998700;28;20041;-77
2021/03/20 13:51:09;;;;;;;19.40;12.93;;;;;;;;;;4998578;28;20038;-77
2021/03/20 13:53:36;;;;;;;21.13;14.05;;;;;;;;;;4998485;28;20029;-77
2021/03/20 13:56:03;;;;;;;19.27;13.35;;;;;;;;;;4964582;28;20046;-77
2021/03/20 13:58:29;;;;;;;15.13;11.60;;;;;;;;;;4998526;28;20423;-77
2021/03/20 14:00:56;;;;;;;17.23;12.93;;;;;;;;;;4981189;28;20117;-77
2021/03/20 14:03:23;;;;;;;19.55;13.55;;;;;;;;;;4998478;28;20097;-77
2021/03/20 14:05:49;;;;;;;18.70;12.98;;;;;;;;;;4997824;28;20045;-77
2021/03/20 14:08:16;;;;;;;22.20;14.05;;;;;;;;;;4998614;28;20029;-76
2021/03/20 14:10:43;;;;;;;20.48;14.07;;;;;;;;;;4998316;28;20026;-77
2021/03/20 14:13:11;;;;;;;23.27;14.65;;;;;;;;;;4998362;28;20413;-77
2021/03/20 14:15:37;;;;;;;21.15;13.75;;;;;;;;;;4998157;28;20061;-77
2021/03/20 14:18:04;;;;;;;22.13;13.75;;;;;;;;;;4998159;28;20404;-76
2021/03/20 14:20:35;;;;;;;25.27;16.15;;;;;;;;;;4998098;28;20401;-77
2021/03/20 14:23:01;;;;;;;20.80;14.98;;;;;;;;;;4977602;28;20057;-77
2021/03/20 14:25:27;;;;;;;21.70;14.57;;;;;;;;;;4978828;28;20066;-77
2021/03/20 14:27:55;;;;;;;33.30;18.23;;;;;;;;;;4978131;28;20051;-77
2021/03/20 14:30:29;;;;;;;30.23;17.52;;;;;;;;;;4978570;28;20038;-77
2021/03/20 14:32:55;;;;;;;25.17;15.55;;;;;;;;;;4978415;28;20098;-77